Time;durP1;ratioP1;P1;durP2;ratioP2;P2;SDS_P1;SDS_P2;PMS_P1;PMS_P2;Temp;Humidity;BMP_temperature;BMP_pressure;BME280_temperature;BME280_humidity;BME280_pressure;Samples;Min_cycle;Max_cycle;Signal;HPM_P1;HPM_P2
2021/06/23 00:02:28;;;;;;;5.03;1.67;;;28.70;99.90;;;;;;4953087;28;20732;-86
2021/06/23 00:05:00;;;;;;;3.10;1.50;;;28.40;99.90;;;;;;4953809;28;20255;-87
2021/06/23 00:07:31;;;;;;;5.30;2.07;;;28.70;99.90;;;;;;4954534;28;20250;-87
2021/06/23 00:10:01;;;;;;;2.03;1.17;;;29.10;99.90;;;;;;4962413;28;20290;-86
2021/06/23 00:12:32;;;;;;;2.87;1.40;;;29.00;99.90;;;;;;4973479;28;20249;-87
2021/06/23 00:15:05;;;;;;;3.83;1.57;;;28.80;99.90;;;;;;4973521;28;20213;-86
2021/06/23 00:17:44;;;;;;;4.30;1.43;;;28.90;99.90;;;;;;4972703;28;20601;-87
2021/06/23 00:20:18;;;;;;;1.83;1.27;;;28.90;99.90;;;;;;4972552;28;20695;-86
2021/06/23 00:22:50;;;;;;;2.90;1.33;;;28.80;99.90;;;;;;4973233;28;20245;-87
2021/06/23 00:25:20;;;;;;;2.20;1.37;;;28.60;99.90;;;;;;4973573;28;20226;-87
2021/06/23 00:27:51;;;;;;;3.53;1.40;;;28.30;99.90;;;;;;4972840;28;20301;-88
2021/06/23 00:30:22;;;;;;;1.80;1.40;;;28.20;99.90;;;;;;4972072;28;20298;-87
2021/06/23 00:32:55;;;;;;;3.17;1.57;;;28.00;99.90;;;;;;4974768;28;20206;-87
2021/06/23 00:35:28;;;;;;;4.10;1.60;;;28.40;99.90;;;;;;4974899;28;20250;-87
2021/06/23 00:37:59;;;;;;;2.23;1.33;;;28.50;99.90;;;;;;4975011;28;20278;-87
2021/06/23 00:40:30;;;;;;;2.70;1.70;;;28.70;99.90;;;;;;4973821;28;20278;-87
2021/06/23 00:43:02;;;;;;;3.37;1.43;;;28.90;99.90;;;;;;4977382;28;20215;-88
2021/06/23 00:45:34;;;;;;;3.10;1.20;;;29.20;99.90;;;;;;4977029;28;20289;-87
2021/06/23 00:48:07;;;;;;;3.00;1.40;;;29.30;99.90;;;;;;4978933;28;20246;-91
2021/06/23 00:50:41;;;;;;;2.07;1.30;;;29.70;99.90;;;;;;4976079;28;20226;-88
2021/06/23 00:53:13;;;;;;;3.03;1.10;;;30.20;99.90;;;;;;4967167;28;20253;-88
2021/06/23 00:55:43;;;;;;;3.80;1.27;;;30.60;99.90;;;;;;4977201;28;20262;-88
2021/06/23 00:58:15;;;;;;;6.40;1.43;;;31.20;99.90;;;;;;4975717;28;20327;-88
2021/06/23 01:00:46;;;;;;;3.73;1.30;;;31.00;99.90;;;;;;4976453;28;20297;-88
2021/06/23 01:03:17;;;;;;;2.83;1.37;;;31.20;99.90;;;;;;4977798;28;20207;-88
2021/06/23 01:05:50;;;;;;;4.00;1.53;;;31.80;99.90;;;;;;4977178;28;20329;-89
2021/06/23 01:08:21;;;;;;;4.78;1.40;;;31.50;99.90;;;;;;4978039;28;20302;-88
2021/06/23 01:10:59;;;;;;;4.83;1.47;;;31.30;99.90;;;;;;4976529;28;20676;-88
2021/06/23 01:13:37;;;;;;;5.13;1.40;;;30.90;99.90;;;;;;4976606;28;20266;-89
2021/06/23 01:16:11;;;;;;;2.70;1.33;;;30.50;99.90;;;;;;4982372;28;20630;-88
2021/06/23 01:18:43;;;;;;;3.60;1.60;;;29.50;99.90;;;;;;4997945;28;20233;-87
2021/06/23 01:21:15;;;;;;;2.83;1.20;;;28.90;99.90;;;;;;4985023;28;20281;-87
2021/06/23 01:23:48;;;;;;;2.07;1.27;;;29.70;99.90;;;;;;4996851;28;20237;-87
2021/06/23 01:26:19;;;;;;;3.00;1.30;;;30.40;99.90;;;;;;4980560;28;20242;-88
2021/06/23 01:28:50;;;;;;;3.40;1.60;;;30.80;99.90;;;;;;4977401;28;20616;-87
2021/06/23 01:31:22;;;;;;;3.80;1.33;;;31.20;99.90;;;;;;4977066;28;20207;-89
2021/06/23 01:33:53;;;;;;;1.73;1.25;;;31.50;99.90;;;;;;4976658;28;20211;-90
2021/06/23 01:36:24;;;;;;;1.90;1.10;;;31.90;99.90;;;;;;4978428;28;20203;-90
2021/06/23 01:38:57;;;;;;;2.13;1.30;;;32.40;99.90;;;;;;4975761;28;20770;-90
2021/06/23 01:41:28;;;;;;;4.22;1.35;;;33.10;99.90;;;;;;4976192;28;20274;-90
2021/06/23 01:43:59;;;;;;;3.05;1.30;;;33.40;99.90;;;;;;4977947;28;20218;-90
2021/06/23 01:46:31;;;;;;;4.07;1.70;;;33.60;99.90;;;;;;4976389;28;20719;-91
2021/06/23 01:49:02;;;;;;;1.75;1.25;;;33.40;99.90;;;;;;4977652;28;20211;-90
2021/06/23 01:51:34;;;;;;;1.38;1.17;;;32.10;99.90;;;;;;4977324;28;20241;-91
2021/06/23 01:54:07;;;;;;;2.83;1.20;;;32.40;99.90;;;;;;4959031;28;20243;-91
2021/06/23 01:56:38;;;;;;;3.75;1.40;;;33.00;99.90;;;;;;4960229;28;20243;-90
2021/06/23 01:59:10;;;;;;;4.28;1.50;;;33.20;99.90;;;;;;4976834;28;20294;-90
2021/06/23 02:01:53;;;;;;;1.75;1.33;;;32.90;99.90;;;;;;4973367;28;20215;-90
2021/06/23 02:04:51;;;;;;;4.70;1.40;;;32.90;99.90;;;;;;4981950;28;20207;-90
2021/06/23 02:08:06;;;;;;;4.80;1.38;;;32.90;99.90;;;;;;4973971;28;20215;-91
2021/06/23 02:11:03;;;;;;;2.25;1.50;;;33.20;99.90;;;;;;4995446;28;20206;-90
2021/06/23 02:14:06;;;;;;;4.15;1.48;;;32.80;99.90;;;;;;4983833;28;20241;-90
2021/06/23 02:16:41;;;;;;;4.95;1.52;;;32.50;99.90;;;;;;4974588;28;20219;-90
2021/06/23 02:19:12;;;;;;;2.80;1.45;;;32.50;99.90;;;;;;4980857;28;20268;-90
2021/06/23 02:21:43;;;;;;;5.00;1.50;;;31.50;99.90;;;;;;4985186;28;20214;-91
2021/06/23 02:24:14;;;;;;;3.13;1.27;;;30.90;99.90;;;;;;4982041;28;20271;-90
2021/06/23 02:26:48;;;;;;;3.22;1.25;;;31.40;99.90;;;;;;4978247;28;20199;-92
2021/06/23 02:29:19;;;;;;;1.75;1.20;;;31.80;99.90;;;;;;4985012;28;20222;-90
2021/06/23 02:31:53;;;;;;;2.38;1.63;;;31.90;99.90;;;;;;4985834;28;20219;-90
2021/06/23 02:34:26;;;;;;;2.13;1.23;;;31.20;99.90;;;;;;4980116;28;20199;-90
2021/06/23 02:36:58;;;;;;;3.05;1.50;;;31.20;99.90;;;;;;4989112;28;20211;-89
2021/06/23 02:39:29;;;;;;;2.20;1.35;;;29.50;99.90;;;;;;4981844;28;20273;-91
2021/06/23 02:42:02;;;;;;;2.20;1.27;;;28.40;99.90;;;;;;4976696;28;20231;-90
2021/06/23 02:44:34;;;;;;;4.90;1.50;;;27.10;99.90;;;;;;4978179;28;20297;-90
2021/06/23 02:47:05;;;;;;;4.70;1.33;;;26.30;99.90;;;;;;4978416;28;20207;-90
2021/06/23 02:49:41;;;;;;;3.93;1.33;;;26.20;99.90;;;;;;4980296;28;20222;-90
2021/06/23 02:52:13;;;;;;;2.83;1.40;;;26.20;99.90;;;;;;4976584;28;20202;-90
2021/06/23 02:54:44;;;;;;;2.63;1.80;;;26.10;99.90;;;;;;4977540;28;20210;-90
2021/06/23 02:57:17;;;;;;;1.40;1.10;;;25.90;99.90;;;;;;4976134;28;20269;-90
2021/06/23 02:59:48;;;;;;;3.50;1.47;;;25.60;99.90;;;;;;4975624;28;20263;-91
2021/06/23 03:02:19;;;;;;;3.07;1.57;;;25.40;99.90;;;;;;4976111;28;20233;-90
2021/06/23 03:04:51;;;;;;;2.53;1.20;;;25.30;99.90;;;;;;4973807;28;20211;-90
2021/06/23 03:07:22;;;;;;;3.90;1.47;;;25.10;99.90;;;;;;4976182;28;20238;-90
2021/06/23 03:10:02;;;;;;;2.50;1.60;;;25.00;99.90;;;;;;4976435;28;20346;-91
2021/06/23 03:12:36;;;;;;;4.13;1.90;;;24.90;99.90;;;;;;4981269;28;20210;-90
2021/06/23 03:15:09;;;;;;;3.20;1.70;;;24.70;99.90;;;;;;4996660;28;20743;-89
2021/06/23 03:17:40;;;;;;;2.77;1.50;;;24.50;99.90;;;;;;4991027;28;20203;-90
2021/06/23 03:20:15;;;;;;;4.73;1.93;;;24.30;99.90;;;;;;4976462;28;20329;-90
2021/06/23 03:22:46;;;;;;;3.77;1.90;;;24.20;99.90;;;;;;4975911;28;20241;-90
2021/06/23 03:25:17;;;;;;;2.90;1.73;;;24.10;99.90;;;;;;4967985;28;20324;-89
2021/06/23 03:27:59;;;;;;;3.17;1.70;;;24.10;99.90;;;;;;4976175;28;20206;-90
2021/06/23 03:30:32;;;;;;;7.20;2.20;;;24.00;99.90;;;;;;4975204;28;20242;-90
2021/06/23 03:33:04;;;;;;;5.43;1.97;;;24.10;99.90;;;;;;4975338;28;20302;-90
2021/06/23 03:35:35;;;;;;;4.57;2.10;;;24.00;99.90;;;;;;4975894;28;20664;-90
2021/06/23 03:38:06;;;;;;;3.90;1.97;;;23.90;99.90;;;;;;4975845;28;20234;-90
2021/06/23 03:40:37;;;;;;;4.03;1.87;;;23.90;99.90;;;;;;4979390;28;20231;-90
2021/06/23 03:43:10;;;;;;;4.50;1.90;;;23.80;99.90;;;;;;4976701;28;20214;-87
2021/06/23 03:45:48;;;;;;;4.03;1.70;;;23.70;99.90;;;;;;4972471;28;20210;-91
2021/06/23 03:48:19;;;;;;;4.90;2.13;;;23.70;99.90;;;;;;4975047;28;20235;-90
2021/06/23 03:50:50;;;;;;;3.93;1.87;;;23.70;99.90;;;;;;4979678;28;20627;-90
2021/06/23 03:53:21;;;;;;;5.73;2.10;;;23.60;99.90;;;;;;4970430;28;20285;-90
2021/06/23 03:55:52;;;;;;;5.00;2.10;;;23.40;99.90;;;;;;4974841;28;20246;-94
2021/06/23 03:58:25;;;;;;;3.17;1.80;;;23.30;99.90;;;;;;4965715;28;20298;-88
2021/06/23 04:00:55;;;;;;;6.03;2.10;;;23.30;99.90;;;;;;4954670;28;20207;-90
2021/06/23 04:03:27;;;;;;;4.33;2.03;;;23.20;99.90;;;;;;4955575;28;20203;-87
2021/06/23 04:05:58;;;;;;;2.53;1.33;;;23.10;99.90;;;;;;4956717;28;20644;-89
2021/06/23 04:08:28;;;;;;;4.23;1.40;;;23.00;99.90;;;;;;4967260;28;20211;-88
2021/06/23 04:10:59;;;;;;;2.17;0.90;;;22.90;99.90;;;;;;4974637;28;20261;-89
2021/06/23 04:13:32;;;;;;;3.03;1.10;;;22.80;99.90;;;;;;4975552;28;20230;-88
2021/06/23 04:16:03;;;;;;;2.83;1.20;;;22.80;99.90;;;;;;4975226;28;20218;-89
2021/06/23 04:18:39;;;;;;;2.87;1.30;;;22.70;99.90;;;;;;4978867;28;20213;-88
2021/06/23 04:21:11;;;;;;;2.50;1.17;;;22.60;99.90;;;;;;4978115;28;20238;-88
2021/06/23 04:23:41;;;;;;;4.10;1.10;;;22.50;99.90;;;;;;4978520;28;20282;-88
2021/06/23 04:26:12;;;;;;;1.67;1.00;;;22.40;99.90;;;;;;4978686;28;20234;-88
2021/06/23 04:28:45;;;;;;;1.20;0.90;;;22.30;99.90;;;;;;4978915;28;20211;-88
2021/06/23 04:31:17;;;;;;;1.90;1.00;;;22.30;99.90;;;;;;4978048;28;20206;-88
2021/06/23 04:33:48;;;;;;;1.53;0.80;;;22.20;99.90;;;;;;4977838;28;20222;-88
2021/06/23 04:36:19;;;;;;;1.57;0.77;;;22.10;99.90;;;;;;4979338;28;20297;-90
2021/06/23 04:38:50;;;;;;;1.97;0.87;;;22.00;99.90;;;;;;4985147;28;20210;-89
2021/06/23 04:41:22;;;;;;;2.37;0.80;;;22.00;99.90;;;;;;4990000;28;20215;-88
2021/06/23 04:43:54;;;;;;;4.67;1.27;;;22.00;99.90;;;;;;4999007;28;20187;-88
2021/06/23 04:46:26;;;;;;;3.90;1.07;;;21.90;99.90;;;;;;4986019;28;20289;-89
2021/06/23 04:48:57;;;;;;;1.97;0.90;;;21.70;99.90;;;;;;4979074;28;20207;-88
2021/06/23 04:51:28;;;;;;;1.57;0.67;;;21.70;99.90;;;;;;4978214;28;20290;-88
2021/06/23 04:53:59;;;;;;;1.67;0.80;;;21.60;99.90;;;;;;4978543;28;20237;-88
2021/06/23 04:56:34;;;;;;;1.90;0.90;;;21.50;99.90;;;;;;4975707;28;20214;-89
2021/06/23 04:59:07;;;;;;;2.67;1.10;;;21.50;99.90;;;;;;4982765;28;20270;-88
2021/06/23 05:01:38;;;;;;;5.33;0.97;;;21.40;99.90;;;;;;4996609;28;20319;-88
2021/06/23 05:04:10;;;;;;;2.57;1.50;;;21.30;99.90;;;;;;4997234;28;20663;-88
2021/06/23 05:06:41;;;;;;;3.03;1.30;;;21.20;99.90;;;;;;4996161;28;20612;-88
2021/06/23 05:09:12;;;;;;;4.40;1.83;;;21.20;99.90;;;;;;4968586;28;20243;-88
2021/06/23 05:11:43;;;;;;;8.20;2.17;;;21.10;99.90;;;;;;4977064;28;20215;-88
2021/06/23 05:14:15;;;;;;;2.60;0.83;;;21.00;99.90;;;;;;4977329;28;20215;-88
2021/06/23 05:16:50;;;;;;;1.27;0.77;;;20.90;99.90;;;;;;4978134;28;20588;-90
2021/06/23 05:19:21;;;;;;;2.27;1.00;;;20.80;99.90;;;;;;4980335;28;20214;-90
2021/06/23 05:21:52;;;;;;;1.90;0.90;;;20.80;99.90;;;;;;4958970;28;20298;-88
2021/06/23 05:24:23;;;;;;;1.53;0.70;;;20.70;99.90;;;;;;4977517;28;20298;-88
2021/06/23 05:26:55;;;;;;;1.87;0.70;;;20.60;99.90;;;;;;4958461;28;20221;-88
2021/06/23 05:29:27;;;;;;;2.27;0.87;;;20.60;99.90;;;;;;4974923;28;20238;-88
2021/06/23 05:31:58;;;;;;;2.50;0.80;;;20.50;99.90;;;;;;4977259;28;20674;-89
2021/06/23 05:34:29;;;;;;;2.33;0.77;;;20.50;99.90;;;;;;4959314;28;20219;-89
2021/06/23 05:37:01;;;;;;;3.07;1.30;;;20.40;99.90;;;;;;4976097;28;20238;-89
2021/06/23 05:39:31;;;;;;;2.07;1.03;;;20.40;99.90;;;;;;4958382;29;20311;-89
2021/06/23 05:42:03;;;;;;;1.70;0.80;;;20.30;99.90;;;;;;4975573;28;20306;-89
2021/06/23 05:44:35;;;;;;;1.77;0.80;;;20.30;99.90;;;;;;4977738;28;20206;-88
2021/06/23 05:47:06;;;;;;;4.50;1.57;;;20.20;99.90;;;;;;4977167;28;20354;-87
2021/06/23 05:49:38;;;;;;;2.33;0.80;;;20.10;99.90;;;;;;4958037;28;20211;-90
2021/06/23 05:52:09;;;;;;;2.13;1.00;;;20.00;99.90;;;;;;4956971;28;20295;-90
2021/06/23 05:54:40;;;;;;;3.37;0.90;;;19.90;99.90;;;;;;4957654;29;20242;-89
2021/06/23 05:57:12;;;;;;;2.40;0.80;;;19.90;99.90;;;;;;4973326;28;20195;-91
2021/06/23 05:59:45;;;;;;;1.60;0.70;;;19.80;99.90;;;;;;4958006;28;20212;-90
2021/06/23 06:02:16;;;;;;;1.93;0.80;;;19.90;99.90;;;;;;4975027;28;20273;-90
2021/06/23 06:04:47;;;;;;;1.27;0.70;;;19.80;99.90;;;;;;4958279;28;20299;-88
2021/06/23 06:07:19;;;;;;;1.70;0.90;;;19.70;99.90;;;;;;4966551;28;20289;-89
2021/06/23 06:09:50;;;;;;;1.93;0.87;;;19.60;99.90;;;;;;4977059;28;20207;-90
2021/06/23 06:12:21;;;;;;;3.43;0.77;;;19.60;99.90;;;;;;4978265;28;20248;-88
2021/06/23 06:14:54;;;;;;;3.70;0.90;;;19.50;99.90;;;;;;4977962;28;20390;-89
2021/06/23 06:17:26;;;;;;;2.23;0.90;;;19.40;99.90;;;;;;4977537;28;20234;-89
2021/06/23 06:19:57;;;;;;;2.30;0.97;;;19.20;99.90;;;;;;4977254;28;20211;-89
2021/06/23 06:22:28;;;;;;;2.30;1.17;;;19.20;99.90;;;;;;4978134;28;20229;-89
2021/06/23 06:24:59;;;;;;;2.70;0.93;;;19.20;99.90;;;;;;4976853;28;20286;-89
2021/06/23 06:27:30;;;;;;;3.37;0.97;;;19.20;99.90;;;;;;4977505;28;20215;-90
2021/06/23 06:30:03;;;;;;;3.43;0.90;;;19.20;99.90;;;;;;4977078;28;20207;-89
2021/06/23 06:32:34;;;;;;;2.97;0.80;;;19.10;99.90;;;;;;4976468;28;20739;-89
2021/06/23 06:35:06;;;;;;;2.60;1.17;;;19.10;99.90;;;;;;4977284;28;20207;-88
2021/06/23 06:37:38;;;;;;;1.20;0.90;;;19.00;99.90;;;;;;4976790;28;20203;-88
2021/06/23 06:40:10;;;;;;;2.03;0.90;;;19.10;99.90;;;;;;4973960;28;20864;-88
2021/06/23 06:42:40;;;;;;;1.77;0.90;;;19.00;99.90;;;;;;4996238;28;20242;-89
2021/06/23 06:45:14;;;;;;;4.43;0.90;;;19.00;99.90;;;;;;4996712;28;20723;-89
2021/06/23 06:47:45;;;;;;;1.90;1.20;;;19.00;99.90;;;;;;4995506;28;20230;-88
2021/06/23 06:50:16;;;;;;;3.37;1.10;;;18.90;99.90;;;;;;4995025;28;20296;-88
2021/06/23 06:52:47;;;;;;;1.60;0.93;;;18.90;99.90;;;;;;4983349;28;20325;-88
2021/06/23 06:55:22;;;;;;;3.10;1.10;;;18.80;99.90;;;;;;4976223;28;20214;-88
2021/06/23 06:57:55;;;;;;;2.67;0.90;;;18.70;99.90;;;;;;4974862;28;20261;-88
2021/06/23 07:00:28;;;;;;;3.00;1.13;;;18.50;99.90;;;;;;4972300;28;20321;-89
2021/06/23 07:03:00;;;;;;;2.83;1.00;;;18.50;99.90;;;;;;4976854;28;20226;-89
2021/06/23 07:05:32;;;;;;;1.83;0.70;;;18.50;99.90;;;;;;4976690;28;20299;-89
2021/06/23 07:08:03;;;;;;;1.70;0.97;;;18.50;99.90;;;;;;4976836;28;20269;-89
2021/06/23 07:10:34;;;;;;;3.07;0.97;;;18.40;99.90;;;;;;4991694;28;20238;-89
2021/06/23 07:13:06;;;;;;;2.80;1.10;;;18.40;99.90;;;;;;4995651;28;20222;-89
2021/06/23 07:15:40;;;;;;;2.63;0.93;;;18.30;99.90;;;;;;4994804;28;20207;-89
2021/06/23 07:18:12;;;;;;;4.20;1.30;;;18.40;99.90;;;;;;4986626;28;20206;-89
2021/06/23 07:20:43;;;;;;;3.30;1.07;;;18.40;99.90;;;;;;4991843;28;20289;-89
2021/06/23 07:23:14;;;;;;;2.30;1.37;;;18.40;99.90;;;;;;4976741;28;20245;-89
2021/06/23 07:25:44;;;;;;;2.60;1.17;;;18.40;99.90;;;;;;4976963;28;20573;-89
2021/06/23 07:28:22;;;;;;;3.90;1.50;;;18.40;99.90;;;;;;4976635;28;20207;-89
2021/06/23 07:30:56;;;;;;;2.07;1.60;;;18.40;99.90;;;;;;4975856;28;20206;-88
2021/06/23 07:33:27;;;;;;;3.17;1.60;;;18.40;99.90;;;;;;4975310;28;20695;-88
2021/06/23 07:38:46;;;;;;;5.13;1.17;;;18.30;99.90;;;;;;4978018;28;20237;-89
2021/06/23 07:41:16;;;;;;;3.07;1.67;;;18.30;99.90;;;;;;4977344;28;20317;-88
2021/06/23 07:43:47;;;;;;;1.53;1.23;;;18.30;99.90;;;;;;4976907;28;20267;-88
2021/06/23 07:46:19;;;;;;;3.23;1.30;;;18.20;99.90;;;;;;4979584;28;20218;-88
2021/06/23 07:49:00;;;;;;;3.63;1.40;;;18.10;99.90;;;;;;4980614;28;20284;-89
2021/06/23 07:51:40;;;;;;;3.27;1.40;;;18.10;99.90;;;;;;4981218;28;20215;-90
2021/06/23 08:11:20;;;;;;;1.90;1.33;;;17.80;99.90;;;;;;4992471;28;20297;-88
2021/06/23 08:13:51;;;;;;;4.43;1.33;;;17.70;99.90;;;;;;4999083;28;20334;-88
2021/06/23 08:16:24;;;;;;;4.33;1.40;;;17.60;99.90;;;;;;5013834;28;20206;-88
2021/06/23 08:18:57;;;;;;;2.93;1.40;;;17.60;99.90;;;;;;5014328;28;20210;-88
2021/06/23 08:21:28;;;;;;;2.77;1.27;;;17.60;99.90;;;;;;5013150;28;20264;-88
2021/06/23 08:23:59;;;;;;;1.77;1.50;;;17.50;99.90;;;;;;5015609;28;20216;-88
2021/06/23 08:26:30;;;;;;;2.07;1.43;;;17.50;99.90;;;;;;5013698;28;20202;-88
2021/06/23 08:29:01;;;;;;;1.60;1.23;;;17.50;99.90;;;;;;5013204;28;20209;-88
2021/06/23 08:31:32;;;;;;;1.23;1.07;;;17.40;99.90;;;;;;5012447;28;20240;-88
2021/06/23 08:34:05;;;;;;;1.90;1.13;;;17.40;99.90;;;;;;5013318;28;20289;-88
2021/06/23 08:36:36;;;;;;;1.87;1.10;;;17.40;99.90;;;;;;5011288;28;20206;-88
2021/06/23 08:39:07;;;;;;;4.43;1.30;;;17.40;99.90;;;;;;5011820;28;20214;-88
2021/06/23 08:41:39;;;;;;;1.90;1.13;;;17.30;99.90;;;;;;5012402;28;20689;-87
2021/06/23 08:44:10;;;;;;;3.33;1.20;;;17.20;99.90;;;;;;5012837;28;20264;-88
2021/06/23 08:46:41;;;;;;;3.70;1.50;;;17.10;99.90;;;;;;5012778;28;20746;-88
2021/06/23 08:49:15;;;;;;;3.17;1.43;;;17.00;99.90;;;;;;5013052;28;20309;-88
2021/06/23 08:51:46;;;;;;;2.10;1.40;;;16.90;99.90;;;;;;5012586;28;20620;-89
2021/06/23 08:54:17;;;;;;;2.63;1.50;;;16.80;99.90;;;;;;5013086;28;20201;-88
2021/06/23 08:56:48;;;;;;;2.47;1.40;;;16.70;99.90;;;;;;5013260;28;20316;-89
2021/06/23 08:59:19;;;;;;;1.90;1.20;;;16.60;99.90;;;;;;5013384;28;20584;-89
2021/06/23 09:01:51;;;;;;;1.93;1.10;;;16.50;99.90;;;;;;5014409;28;20797;-88
2021/06/23 09:04:25;;;;;;;1.57;1.47;;;16.60;99.90;;;;;;5016867;28;20241;-89
2021/06/23 09:06:58;;;;;;;3.17;1.30;;;16.50;99.90;;;;;;5017507;28;20287;-89
2021/06/23 09:09:34;;;;;;;2.03;1.27;;;16.50;99.90;;;;;;5017020;28;20202;-89
2021/06/23 09:12:07;;;;;;;1.70;1.20;;;16.40;99.90;;;;;;5016540;28;20216;-88
2021/06/23 09:14:40;;;;;;;2.50;1.30;;;16.30;99.90;;;;;;5017090;28;20244;-88
2021/06/23 09:17:15;;;;;;;2.03;1.30;;;16.20;99.90;;;;;;5002153;28;20293;-88
2021/06/23 09:19:55;;;;;;;2.10;1.40;;;16.10;99.90;;;;;;5004690;28;20213;-89
2021/06/23 09:22:36;;;;;;;1.57;1.23;;;16.20;99.90;;;;;;4998732;28;20301;-87
2021/06/23 09:25:25;;;;;;;1.93;1.13;;;16.10;99.90;;;;;;5035661;28;20251;-88
2021/06/23 09:27:58;;;;;;;2.30;1.30;;;15.90;99.90;;;;;;5036119;28;20266;-86
2021/06/23 09:30:33;;;;;;;3.13;1.20;;;15.90;99.90;;;;;;5035327;28;20696;-88
2021/06/23 09:33:12;;;;;;;2.87;1.03;;;15.90;99.90;;;;;;5035999;28;20201;-88
2021/06/23 09:35:46;;;;;;;2.37;1.20;;;15.90;99.90;;;;;;5035949;28;20287;-87
2021/06/23 09:38:45;;;;;;;2.33;0.97;;;15.90;99.90;;;;;;5036176;28;20219;-88
2021/06/23 09:41:28;;;;;;;2.53;1.00;;;15.70;99.90;;;;;;5028257;28;20228;-88
2021/06/23 09:44:07;;;;;;;2.17;1.20;;;15.70;99.90;;;;;;5036788;28;20228;-88
2021/06/23 09:46:39;;;;;;;3.17;1.40;;;15.70;99.90;;;;;;5036635;28;20193;-88
2021/06/23 09:49:12;;;;;;;2.80;1.20;;;15.60;99.90;;;;;;5020131;28;20210;-88
2021/06/23 09:51:48;;;;;;;4.20;1.30;;;15.60;99.90;;;;;;5016980;28;20201;-89
2021/06/23 09:54:21;;;;;;;5.03;1.30;;;15.60;99.90;;;;;;5015304;28;20257;-88
2021/06/23 09:57:11;;;;;;;1.30;1.20;;;15.50;99.90;;;;;;5015013;28;20213;-89
2021/06/23 09:59:43;;;;;;;3.73;1.17;;;15.50;99.90;;;;;;5016197;28;20216;-89
2021/06/23 10:02:26;;;;;;;4.07;1.20;;;15.50;99.90;;;;;;5014580;28;20654;-88
2021/06/23 10:04:58;;;;;;;2.97;1.30;;;15.50;99.90;;;;;;5016215;28;20662;-88
2021/06/23 10:07:42;;;;;;;3.67;1.20;;;15.30;99.90;;;;;;5015934;28;20267;-89
2021/06/23 10:10:15;;;;;;;2.33;1.43;;;15.30;99.90;;;;;;5015064;28;20625;-89
2021/06/23 10:12:47;;;;;;;2.70;1.17;;;15.10;99.90;;;;;;5015558;28;20209;-88
2021/06/23 10:15:18;;;;;;;4.70;1.40;;;15.00;99.90;;;;;;5014497;28;20653;-88
2021/06/23 10:17:49;;;;;;;3.33;1.57;;;15.00;99.90;;;;;;5015304;28;20301;-89
2021/06/23 10:20:20;;;;;;;3.63;1.53;;;14.80;99.90;;;;;;5013670;28;20599;-88
2021/06/23 10:22:53;;;;;;;5.00;1.43;;;14.90;99.90;;;;;;5014222;28;20316;-88
2021/06/23 10:25:27;;;;;;;2.13;1.57;;;14.90;99.90;;;;;;5014964;28;20292;-88
2021/06/23 10:27:59;;;;;;;3.30;1.47;;;14.90;99.90;;;;;;5014277;28;20642;-88
2021/06/23 10:30:31;;;;;;;3.40;1.37;;;14.90;99.90;;;;;;5014458;28;20280;-88
2021/06/23 10:33:02;;;;;;;1.73;1.27;;;14.90;99.90;;;;;;5015008;28;20263;-88
2021/06/23 10:35:33;;;;;;;5.60;2.00;;;15.00;99.90;;;;;;5015310;28;20297;-87
2021/06/23 10:38:07;;;;;;;4.13;1.50;;;15.00;99.90;;;;;;5015608;28;20245;-86
2021/06/23 10:40:38;;;;;;;3.90;1.73;;;15.00;99.90;;;;;;5015412;28;20256;-87
2021/06/23 10:43:16;;;;;;;5.20;2.30;;;14.90;99.90;;;;;;5015029;28;20347;-87
2021/06/23 10:45:48;;;;;;;4.07;2.07;;;14.60;99.90;;;;;;5014228;28;20194;-87
2021/06/23 10:48:18;;;;;;;3.57;1.90;;;14.60;99.90;;;;;;5015702;28;20292;-87
2021/06/23 10:50:49;;;;;;;3.90;1.93;;;14.60;99.90;;;;;;5014696;28;20288;-87
2021/06/23 10:53:38;;;;;;;4.77;2.10;;;14.60;99.90;;;;;;5015149;28;20700;-88
2021/06/23 10:56:30;;;;;;;5.77;2.20;;;14.60;99.90;;;;;;5015303;28;20210;-87
2021/06/23 10:59:21;;;;;;;1.93;1.73;;;14.50;99.90;;;;;;5015054;28;20224;-88
2021/06/23 11:02:10;;;;;;;3.87;2.10;;;14.50;99.90;;;;;;5015737;28;20297;-88
2021/06/23 11:05:14;;;;;;;5.17;2.00;;;14.50;99.90;;;;;;5015136;28;20733;-89
2021/06/23 11:07:48;;;;;;;3.83;1.87;;;14.60;99.90;;;;;;5015265;28;20208;-88
2021/06/23 11:10:30;;;;;;;5.57;1.80;;;14.60;99.90;;;;;;5014468;28;20304;-89
2021/06/23 11:13:02;;;;;;;4.63;1.90;;;14.70;99.90;;;;;;5015177;28;20233;-88
2021/06/23 11:15:45;;;;;;;4.80;2.03;;;14.70;99.90;;;;;;5015105;28;20244;-88
2021/06/23 11:18:27;;;;;;;4.17;2.33;;;14.70;99.90;;;;;;5013896;28;20254;-88
2021/06/23 11:21:00;;;;;;;5.07;2.00;;;14.70;99.90;;;;;;5013633;28;20248;-88
2021/06/23 11:23:47;;;;;;;4.77;1.60;;;14.70;99.90;;;;;;5015014;28;20705;-88
2021/06/23 11:26:56;;;;;;;3.17;1.77;;;14.70;99.90;;;;;;5013904;28;20225;-87
2021/06/23 11:29:49;;;;;;;3.47;2.00;;;14.80;99.90;;;;;;5014439;28;20209;-88
2021/06/23 11:32:27;;;;;;;4.03;2.13;;;14.80;99.90;;;;;;5014372;28;20288;-88
2021/06/23 11:34:59;;;;;;;4.80;1.87;;;14.80;99.90;;;;;;5015477;28;20213;-87
2021/06/23 11:37:33;;;;;;;3.10;1.70;;;14.70;99.90;;;;;;5014146;28;20217;-87
2021/06/23 11:40:16;;;;;;;3.53;1.73;;;14.70;99.90;;;;;;5014492;28;20218;-88
2021/06/23 11:42:49;;;;;;;1.87;1.60;;;14.70;99.90;;;;;;5013858;28;20667;-88
2021/06/23 11:45:21;;;;;;;2.77;1.70;;;14.70;99.90;;;;;;5014763;28;20300;-87
2021/06/23 11:47:53;;;;;;;4.00;1.77;;;14.60;99.90;;;;;;5014768;28;20354;-87
2021/06/23 11:50:24;;;;;;;1.97;1.50;;;14.60;99.90;;;;;;4997528;28;20279;-88
2021/06/23 11:52:55;;;;;;;1.83;1.50;;;14.50;99.90;;;;;;5014057;28;20252;-87
2021/06/23 11:55:25;;;;;;;3.20;1.90;;;14.40;99.90;;;;;;5014547;28;20233;-87
2021/06/23 11:58:00;;;;;;;3.83;2.63;;;14.40;99.90;;;;;;5013948;28;20266;-89
2021/06/23 12:00:33;;;;;;;3.47;2.07;;;14.40;99.90;;;;;;5012251;28;20304;-88
2021/06/23 12:03:07;;;;;;;3.17;2.20;;;14.40;99.90;;;;;;5014098;28;20233;-88
2021/06/23 12:05:39;;;;;;;3.97;2.10;;;14.30;99.90;;;;;;5013332;28;20288;-88
2021/06/23 12:08:10;;;;;;;4.27;2.00;;;14.40;99.90;;;;;;5015130;28;20236;-88
2021/06/23 12:10:42;;;;;;;3.93;1.93;;;14.30;99.90;;;;;;5016717;28;20214;-88
2021/06/23 12:13:16;;;;;;;3.47;2.00;;;14.20;99.90;;;;;;5033600;28;20201;-88
2021/06/23 12:15:47;;;;;;;5.63;2.50;;;14.20;99.90;;;;;;5034725;28;20202;-89
2021/06/23 12:18:18;;;;;;;2.20;1.90;;;14.30;99.90;;;;;;5029196;28;20289;-88
2021/06/23 12:20:49;;;;;;;3.13;2.20;;;14.20;99.90;;;;;;5012127;28;20267;-87
2021/06/23 12:23:20;;;;;;;3.67;2.00;;;14.30;99.90;;;;;;5011031;28;20233;-88
2021/06/23 12:25:52;;;;;;;4.23;2.10;;;14.40;99.90;;;;;;5014732;28;20220;-88
2021/06/23 12:28:25;;;;;;;4.57;2.63;;;14.40;99.90;;;;;;5013859;28;20233;-88
2021/06/23 12:30:56;;;;;;;3.17;2.20;;;14.50;99.90;;;;;;5012858;28;20233;-88
2021/06/23 12:33:27;;;;;;;2.87;2.10;;;14.40;99.90;;;;;;5013887;28;20201;-88
2021/06/23 12:35:57;;;;;;;2.40;2.07;;;14.40;99.90;;;;;;5015808;28;20274;-88
2021/06/23 12:38:29;;;;;;;2.20;1.93;;;14.40;99.90;;;;;;5016843;28;20214;-88
2021/06/23 12:41:00;;;;;;;4.80;2.33;;;14.40;99.90;;;;;;5017594;28;20329;-87
2021/06/23 12:43:33;;;;;;;3.50;1.77;;;14.50;99.90;;;;;;5018239;28;20264;-88
2021/06/23 12:46:04;;;;;;;2.83;1.90;;;14.50;99.90;;;;;;5018343;28;20220;-89
2021/06/23 12:48:35;;;;;;;2.93;1.80;;;14.50;99.90;;;;;;5018230;28;20209;-88
2021/06/23 12:51:07;;;;;;;3.23;1.77;;;14.60;99.90;;;;;;5017242;28;20245;-88
2021/06/23 12:53:38;;;;;;;3.10;2.30;;;14.60;99.90;;;;;;5017868;28;20218;-88
2021/06/23 12:56:10;;;;;;;3.97;2.07;;;14.60;99.90;;;;;;5017979;28;20259;-88
2021/06/23 12:58:43;;;;;;;3.27;2.20;;;14.60;99.90;;;;;;5017546;28;20279;-88
2021/06/23 13:01:14;;;;;;;3.30;2.30;;;14.70;99.90;;;;;;5017152;28;20221;-89
2021/06/23 13:03:46;;;;;;;5.23;3.30;;;14.60;99.90;;;;;;5019470;28;20290;-89
2021/06/23 13:06:16;;;;;;;8.00;3.80;;;14.50;99.90;;;;;;5016957;28;20296;-88
2021/06/23 13:08:47;;;;;;;5.53;3.37;;;14.50;99.90;;;;;;5018220;28;20293;-89
2021/06/23 13:11:18;;;;;;;3.17;2.87;;;14.50;99.90;;;;;;5019589;28;20217;-88
2021/06/23 13:13:51;;;;;;;3.70;2.90;;;14.50;99.90;;;;;;5020410;28;20206;-89
2021/06/23 13:16:22;;;;;;;4.43;3.10;;;14.50;99.90;;;;;;5020217;28;20269;-89
2021/06/23 13:18:54;;;;;;;4.17;2.73;;;14.60;99.90;;;;;;5020720;28;20213;-89
2021/06/23 13:21:25;;;;;;;3.33;2.63;;;14.60;99.90;;;;;;5021327;28;20365;-89
2021/06/23 13:23:57;;;;;;;4.30;2.90;;;14.60;99.90;;;;;;5033723;28;20232;-88
2021/06/23 13:26:28;;;;;;;2.50;2.30;;;14.70;99.90;;;;;;5038059;28;20197;-90
2021/06/23 13:29:00;;;;;;;4.43;2.20;;;14.60;99.90;;;;;;5036703;28;20217;-88
2021/06/23 13:31:31;;;;;;;4.43;2.40;;;14.50;99.90;;;;;;5023665;28;20206;-87
2021/06/23 13:34:02;;;;;;;6.10;2.70;;;14.40;99.90;;;;;;5020034;28;20221;-88
2021/06/23 13:36:33;;;;;;;5.47;2.30;;;14.40;99.90;;;;;;5022039;28;20239;-88
2021/06/23 13:39:04;;;;;;;2.13;1.93;;;14.60;99.90;;;;;;5016362;28;20292;-88
2021/06/23 13:41:35;;;;;;;4.00;1.83;;;14.70;99.90;;;;;;5016320;28;20206;-87